createdAt,value
2019-05-22T00:01:50.052Z,5.57
2019-05-22T00:03:55.153Z,9.53
2019-05-22T00:05:59.351Z,7.40
2019-05-22T00:08:03.339Z,7.40
2019-05-22T00:10:07.104Z,4.93
2019-05-22T00:12:10.907Z,5.80
2019-05-22T00:14:14.803Z,7.60
2019-05-22T00:16:18.832Z,8.00
2019-05-22T00:18:22.507Z,6.80
2019-05-22T00:20:26.886Z,7.07
2019-05-22T00:22:30.891Z,4.97
2019-05-22T00:24:34.691Z,6.50
2019-05-22T00:26:38.884Z,12.87
2019-05-22T00:28:43.430Z,5.33
2019-05-22T00:30:47.650Z,9.73
2019-05-22T00:32:51.587Z,10.27
2019-05-22T00:34:55.329Z,7.10
2019-05-22T00:36:59.747Z,5.77
2019-05-22T00:39:03.708Z,11.50
2019-05-22T00:41:08.192Z,9.73
2019-05-22T00:43:14.190Z,12.47
2019-05-22T00:45:17.414Z,8.80
2019-05-22T00:47:21.513Z,11.40
2019-05-22T00:49:25.406Z,6.80
2019-05-22T00:51:29.589Z,7.93
2019-05-22T00:53:33.621Z,5.40
2019-05-22T00:55:37.920Z,6.20
2019-05-22T00:57:42.389Z,6.50
2019-05-22T00:59:46.246Z,7.97
2019-05-22T01:01:50.373Z,7.50
2019-05-22T01:03:54.676Z,19.37
2019-05-22T01:05:58.204Z,7.33
2019-05-22T01:08:03.226Z,8.53
2019-05-22T01:10:07.351Z,6.70
2019-05-22T01:12:11.484Z,6.97
2019-05-22T01:14:15.423Z,12.53
2019-05-22T01:16:19.358Z,7.73
2019-05-22T01:18:23.474Z,9.47
2019-05-22T01:20:27.464Z,5.97
2019-05-22T01:22:32.098Z,6.00
2019-05-22T01:24:36.171Z,5.57
2019-05-22T01:26:40.598Z,10.90
2019-05-22T01:28:44.842Z,6.70
2019-05-22T01:30:49.715Z,5.80
2019-05-22T01:32:53.498Z,5.57
2019-05-22T01:34:57.534Z,6.70
2019-05-22T01:37:01.494Z,9.30
2019-05-22T01:39:05.469Z,5.90
2019-05-22T01:41:09.943Z,7.60
2019-05-22T01:43:14.094Z,6.87
2019-05-22T01:45:18.319Z,5.83
2019-05-22T01:47:22.483Z,6.60
2019-05-22T01:49:26.673Z,6.23
2019-05-22T01:51:31.248Z,5.00
2019-05-22T01:53:35.481Z,13.87
2019-05-22T01:55:40.001Z,5.70
2019-05-22T01:57:44.416Z,5.40
2019-05-22T01:59:48.129Z,6.60
2019-05-22T02:01:52.216Z,5.90
2019-05-22T02:03:55.914Z,5.10
2019-05-22T02:06:00.486Z,5.90
2019-05-22T02:08:04.226Z,7.37
2019-05-22T02:10:08.484Z,5.43
2019-05-22T02:12:12.352Z,5.37
2019-05-22T02:14:16.048Z,5.87
2019-05-22T02:16:19.748Z,6.97
2019-05-22T02:18:23.866Z,5.87
2019-05-22T02:20:27.777Z,6.47
2019-05-22T02:22:32.000Z,6.50
2019-05-22T02:24:35.927Z,10.80
2019-05-22T02:26:39.919Z,5.90
2019-05-22T02:28:44.015Z,6.27
2019-05-22T02:30:48.033Z,9.60
2019-05-22T02:32:52.225Z,6.60
2019-05-22T02:34:56.084Z,8.40
2019-05-22T02:37:02.694Z,5.83
2019-05-22T02:39:08.077Z,8.93
2019-05-22T02:41:14.270Z,7.70
2019-05-22T02:43:17.441Z,6.17
2019-05-22T02:45:21.390Z,7.00
2019-05-22T02:47:25.193Z,7.37
2019-05-22T02:49:29.432Z,5.60
2019-05-22T02:51:33.561Z,5.63
2019-05-22T02:53:37.773Z,5.53
2019-05-22T02:55:41.336Z,6.80
2019-05-22T02:57:46.369Z,6.73
2019-05-22T02:59:49.979Z,5.97
2019-05-22T03:01:54.343Z,6.47
2019-05-22T03:03:58.305Z,5.80
2019-05-22T03:06:02.025Z,5.20
2019-05-22T03:08:06.091Z,5.50
2019-05-22T03:10:09.702Z,7.13
2019-05-22T03:12:14.108Z,5.43
2019-05-22T03:14:18.322Z,6.43
2019-05-22T03:16:22.656Z,6.13
2019-05-22T03:18:26.755Z,6.37
2019-05-22T03:20:30.563Z,8.53
2019-05-22T03:22:34.686Z,4.90
2019-05-22T03:24:38.452Z,8.03
2019-05-22T03:26:42.281Z,5.50
2019-05-22T03:28:46.312Z,6.50
2019-05-22T03:30:50.091Z,8.50
2019-05-22T03:32:54.206Z,6.00
2019-05-22T03:34:59.222Z,5.87
2019-05-22T03:37:03.386Z,5.83
2019-05-22T03:39:07.437Z,6.03
2019-05-22T03:41:11.358Z,5.77
2019-05-22T03:43:15.197Z,5.80
2019-05-22T03:45:19.086Z,6.10
2019-05-22T03:47:22.968Z,8.90
2019-05-22T03:49:30.487Z,6.10
2019-05-22T03:51:32.011Z,6.10
2019-05-22T03:53:35.996Z,4.90
2019-05-22T03:55:40.433Z,5.20
2019-05-22T03:57:44.876Z,4.80
2019-05-22T03:59:49.274Z,5.13
2019-05-22T04:01:53.059Z,5.60
2019-05-22T04:03:57.489Z,6.00
2019-05-22T04:06:01.186Z,5.20
2019-05-22T04:08:06.127Z,5.70
2019-05-22T04:10:10.318Z,4.83
2019-05-22T04:12:14.478Z,6.03
2019-05-22T04:14:18.422Z,4.80
2019-05-22T04:16:22.390Z,5.50
2019-05-22T04:18:26.450Z,4.30
2019-05-22T04:20:30.559Z,4.50
2019-05-22T04:22:35.051Z,3.87
2019-05-22T04:24:38.873Z,6.70
2019-05-22T04:26:42.790Z,4.93
2019-05-22T04:28:46.809Z,5.40
2019-05-22T04:30:50.930Z,3.97
2019-05-22T04:32:54.923Z,4.53
2019-05-22T04:34:59.352Z,4.20
2019-05-22T04:37:03.209Z,4.97
2019-05-22T04:39:07.026Z,4.60
2019-05-22T04:41:10.931Z,5.17
2019-05-22T04:43:14.749Z,4.70
2019-05-22T04:45:18.266Z,4.53
2019-05-22T04:47:22.458Z,6.43
2019-05-22T04:49:26.819Z,4.43
2019-05-22T04:51:30.785Z,4.60
2019-05-22T04:53:35.120Z,3.70
2019-05-22T04:55:39.192Z,4.60
2019-05-22T04:57:43.480Z,5.80
2019-05-22T04:59:47.546Z,4.17
2019-05-22T05:01:51.279Z,6.13
2019-05-22T05:03:55.444Z,4.57
2019-05-22T05:05:59.789Z,7.23
2019-05-22T05:08:03.878Z,3.83
2019-05-22T05:10:07.596Z,4.47
2019-05-22T05:12:11.786Z,4.43
2019-05-22T05:14:16.310Z,3.77
2019-05-22T05:16:20.435Z,3.70
2019-05-22T05:18:25.186Z,4.27
2019-05-22T05:20:29.042Z,4.70
2019-05-22T05:22:32.740Z,4.57
2019-05-22T05:24:37.080Z,4.40
2019-05-22T05:26:41.045Z,5.13
2019-05-22T05:28:44.893Z,3.93
2019-05-22T05:30:49.032Z,4.47
2019-05-22T05:32:52.897Z,3.93
2019-05-22T05:34:56.696Z,4.00
2019-05-22T05:37:00.274Z,3.57
2019-05-22T05:39:04.191Z,3.67
2019-05-22T05:41:07.864Z,4.13
2019-05-22T05:43:11.793Z,4.37
2019-05-22T05:45:15.593Z,3.70
2019-05-22T05:47:19.281Z,4.17
2019-05-22T05:49:23.403Z,4.50
2019-05-22T05:51:27.723Z,4.03
2019-05-22T05:53:31.931Z,4.90
2019-05-22T05:55:35.806Z,3.67
2019-05-22T05:57:40.158Z,4.20
2019-05-22T05:59:44.048Z,3.63
2019-05-22T06:01:48.123Z,3.50
2019-05-22T06:03:51.749Z,3.57
2019-05-22T06:05:55.890Z,3.50
2019-05-22T06:07:59.776Z,3.53
2019-05-22T06:10:03.713Z,3.30
2019-05-22T06:12:07.493Z,3.47
2019-05-22T06:14:11.846Z,3.53
2019-05-22T06:16:15.504Z,3.27
2019-05-22T06:18:19.404Z,2.77
2019-05-22T06:20:23.301Z,3.37
2019-05-22T06:22:27.055Z,3.23
2019-05-22T06:24:30.846Z,4.07
2019-05-22T06:26:34.747Z,4.83
2019-05-22T06:28:38.939Z,4.50
2019-05-22T06:30:42.662Z,3.33
2019-05-22T06:32:46.657Z,3.53
2019-05-22T06:34:50.430Z,3.03
2019-05-22T06:36:54.349Z,2.93
2019-05-22T06:38:57.868Z,2.80
2019-05-22T06:41:01.678Z,3.37
2019-05-22T06:43:05.596Z,3.37
2019-05-22T06:45:09.777Z,3.53
2019-05-22T06:47:13.845Z,2.90
2019-05-22T06:49:17.867Z,2.97
2019-05-22T06:51:21.919Z,3.40
2019-05-22T06:53:25.628Z,3.37
2019-05-22T06:55:29.428Z,3.50
2019-05-22T06:57:32.991Z,3.13
2019-05-22T06:59:37.513Z,3.17
2019-05-22T07:01:41.521Z,2.73
2019-05-22T07:03:45.353Z,4.43
2019-05-22T07:05:49.333Z,2.77
2019-05-22T07:07:53.339Z,2.20
2019-05-22T07:09:57.694Z,3.30
2019-05-22T07:12:01.617Z,3.00
2019-05-22T07:14:05.258Z,2.40
2019-05-22T07:16:09.637Z,2.90
2019-05-22T07:18:13.521Z,2.87
2019-05-22T07:20:17.687Z,2.40
2019-05-22T07:22:21.937Z,2.47
2019-05-22T07:24:25.818Z,2.30
2019-05-22T07:26:29.854Z,2.20
2019-05-22T07:28:33.827Z,2.57
2019-05-22T07:30:37.944Z,2.47
2019-05-22T07:32:41.732Z,2.23
2019-05-22T07:34:45.974Z,1.83
2019-05-22T07:36:49.995Z,1.80
2019-05-22T07:38:53.972Z,2.83
2019-05-22T07:40:58.081Z,2.07
2019-05-22T07:43:01.786Z,3.33
2019-05-22T07:45:05.593Z,2.00
2019-05-22T07:47:09.505Z,2.33
2019-05-22T07:49:13.410Z,1.70
2019-05-22T07:51:17.338Z,1.57
2019-05-22T07:53:21.388Z,2.30
2019-05-22T07:55:25.652Z,1.70
2019-05-22T07:57:29.640Z,2.03
2019-05-22T07:59:33.559Z,3.07
2019-05-22T08:01:37.568Z,1.90
2019-05-22T08:03:41.339Z,1.90
2019-05-22T08:05:45.558Z,2.47
2019-05-22T08:07:49.166Z,1.60
2019-05-22T08:09:53.047Z,2.70
2019-05-22T08:11:56.855Z,2.23
2019-05-22T08:14:00.672Z,2.20
2019-05-22T08:16:04.875Z,1.70
2019-05-22T08:18:08.576Z,2.10
2019-05-22T08:20:12.363Z,1.60
2019-05-22T08:22:17.030Z,1.50
2019-05-22T08:24:20.927Z,2.27
2019-05-22T08:26:24.872Z,1.63
2019-05-22T08:28:28.595Z,1.50
2019-05-22T08:30:33.978Z,1.50
2019-05-22T08:32:38.361Z,2.07
2019-05-22T08:34:42.173Z,1.30
2019-05-22T08:36:45.874Z,1.40
2019-05-22T08:38:50.050Z,1.47
2019-05-22T08:40:54.609Z,1.83
2019-05-22T08:42:58.486Z,1.43
2019-05-22T08:45:02.297Z,1.70
2019-05-22T08:47:06.481Z,1.50
2019-05-22T08:49:10.434Z,1.97
2019-05-22T08:51:14.304Z,3.37
2019-05-22T08:53:18.617Z,1.97
2019-05-22T08:55:22.644Z,2.70
2019-05-22T08:57:26.493Z,1.00
2019-05-22T08:59:30.682Z,1.80
2019-05-22T09:01:34.991Z,1.40
2019-05-22T09:03:39.707Z,1.10
2019-05-22T09:05:43.477Z,1.50
2019-05-22T09:07:48.178Z,2.03
2019-05-22T09:09:52.137Z,1.10
2019-05-22T09:11:57.390Z,1.10
2019-05-22T09:14:01.206Z,1.50
2019-05-22T09:16:05.395Z,1.30
2019-05-22T09:18:09.400Z,6.10
2019-05-22T09:20:13.445Z,1.50
2019-05-22T09:22:17.385Z,1.30
2019-05-22T09:24:21.213Z,1.37
2019-05-22T09:26:24.907Z,2.87
2019-05-22T09:28:28.821Z,1.57
2019-05-22T09:30:32.336Z,1.50
2019-05-22T09:32:36.439Z,2.03
2019-05-22T09:34:40.633Z,1.53
2019-05-22T09:36:44.336Z,1.90
2019-05-22T09:38:51.764Z,1.53
2019-05-22T09:40:53.371Z,2.53
2019-05-22T09:42:57.211Z,2.10
2019-05-22T09:45:01.399Z,1.70
2019-05-22T09:47:05.008Z,2.03
2019-05-22T09:49:08.757Z,1.40
2019-05-22T09:51:12.688Z,1.93
2019-05-22T09:53:16.414Z,1.47
2019-05-22T09:55:19.888Z,1.20
2019-05-22T09:57:23.919Z,1.90
2019-05-22T09:59:27.805Z,1.43
2019-05-22T10:01:31.803Z,2.93
2019-05-22T10:03:35.940Z,1.50
2019-05-22T10:05:39.775Z,2.50
2019-05-22T10:07:57.904Z,2.30
2019-05-22T10:09:49.270Z,2.10
2019-05-22T10:11:52.978Z,2.00
2019-05-22T10:13:56.877Z,1.90
2019-05-22T10:16:00.888Z,7.93
2019-05-22T10:18:04.730Z,1.93
2019-05-22T10:20:08.427Z,2.90
2019-05-22T10:22:12.393Z,2.07
2019-05-22T10:24:16.449Z,1.90
2019-05-22T10:26:20.042Z,1.73
2019-05-22T10:28:24.028Z,2.77
2019-05-22T10:30:27.824Z,2.60
2019-05-22T10:32:32.419Z,3.50
2019-05-22T10:34:36.266Z,1.93
2019-05-22T10:36:43.021Z,1.70
2019-05-22T10:38:45.457Z,2.60
2019-05-22T10:40:49.395Z,2.10
2019-05-22T10:42:53.167Z,2.00
2019-05-22T10:44:56.912Z,1.70
2019-05-22T10:47:00.881Z,1.87
2019-05-22T10:49:04.439Z,1.93
2019-05-22T10:51:08.308Z,2.03
2019-05-22T10:53:12.439Z,2.00
2019-05-22T10:55:16.481Z,2.50
2019-05-22T10:57:19.984Z,1.87
2019-05-22T10:59:23.937Z,1.70
2019-05-22T11:01:28.103Z,2.30
2019-05-22T11:03:32.266Z,1.73
2019-05-22T11:05:36.168Z,2.00
2019-05-22T11:07:40.462Z,2.23
2019-05-22T11:09:44.297Z,2.37
2019-05-22T11:11:48.614Z,3.73
2019-05-22T11:14:01.539Z,2.33
2019-05-22T11:15:57.577Z,2.67
2019-05-22T11:18:01.444Z,3.07
2019-05-22T11:20:05.348Z,6.30
2019-05-22T11:22:09.036Z,2.50
2019-05-22T11:24:13.150Z,3.17
2019-05-22T11:26:17.177Z,2.50
2019-05-22T11:28:20.854Z,5.57
2019-05-22T11:30:24.830Z,3.90
2019-05-22T11:32:28.670Z,2.40
2019-05-22T11:34:32.406Z,2.90
2019-05-22T11:36:36.179Z,5.37
2019-05-22T11:38:40.190Z,2.60
2019-05-22T11:40:43.770Z,3.03
2019-05-22T11:42:47.575Z,3.07
2019-05-22T11:44:51.174Z,3.60
2019-05-22T11:46:55.081Z,5.57
2019-05-22T11:48:59.218Z,3.20
2019-05-22T11:51:03.415Z,5.90
2019-05-22T11:53:07.278Z,9.73
2019-05-22T11:55:11.211Z,9.27
2019-05-22T11:57:15.022Z,12.27
2019-05-22T11:59:18.717Z,13.23
2019-05-22T12:01:22.546Z,12.43
2019-05-22T12:03:26.464Z,12.83
2019-05-22T12:05:30.245Z,13.30
2019-05-22T12:07:34.195Z,10.73
2019-05-22T12:09:38.582Z,12.20
2019-05-22T12:11:43.286Z,9.17
2019-05-22T12:13:47.619Z,7.43
2019-05-22T12:15:51.363Z,9.83
2019-05-22T12:17:55.494Z,12.23
2019-05-22T12:19:59.941Z,7.27
2019-05-22T12:22:03.768Z,9.53
2019-05-22T12:24:07.748Z,8.17
2019-05-22T12:26:11.557Z,8.50
2019-05-22T12:28:15.531Z,8.10
2019-05-22T12:30:20.253Z,10.83
2019-05-22T12:32:24.006Z,9.37
2019-05-22T12:34:27.780Z,7.73
2019-05-22T12:36:31.674Z,9.20
2019-05-22T12:38:35.583Z,7.57
2019-05-22T12:40:39.703Z,4.77
2019-05-22T12:42:44.118Z,8.03
2019-05-22T12:44:48.002Z,9.47
2019-05-22T12:46:52.049Z,6.70
2019-05-22T12:48:55.835Z,5.60
2019-05-22T12:50:59.866Z,5.63
2019-05-22T12:53:03.841Z,9.70
2019-05-22T12:55:07.832Z,7.97
2019-05-22T12:57:11.931Z,9.03
2019-05-22T12:59:15.959Z,10.93
2019-05-22T13:01:19.893Z,6.47
2019-05-22T13:03:23.892Z,7.90
2019-05-22T13:05:27.655Z,6.57
2019-05-22T13:07:31.725Z,7.67
2019-05-22T13:09:35.597Z,9.67
2019-05-22T13:11:39.632Z,6.53
2019-05-22T13:13:43.598Z,6.70
2019-05-22T13:15:48.052Z,5.60
2019-05-22T13:17:52.393Z,6.07
2019-05-22T13:19:56.272Z,4.33
2019-05-22T13:22:00.457Z,4.17
2019-05-22T13:24:03.958Z,5.23
2019-05-22T13:26:08.008Z,5.93
2019-05-22T13:28:12.271Z,6.67
2019-05-22T13:30:16.085Z,11.80
2019-05-22T13:32:19.883Z,8.00
2019-05-22T13:34:23.869Z,6.93
2019-05-22T13:36:28.365Z,10.67
2019-05-22T13:38:32.216Z,8.43
2019-05-22T13:40:36.332Z,8.70
2019-05-22T13:42:40.128Z,8.50
2019-05-22T13:44:44.153Z,7.27
2019-05-22T13:46:48.449Z,10.70
2019-05-22T13:48:52.250Z,7.20
2019-05-22T13:50:56.283Z,6.33
2019-05-22T13:53:00.436Z,6.60
2019-05-22T13:55:04.055Z,9.10
2019-05-22T13:57:07.880Z,5.37
2019-05-22T13:59:12.406Z,6.70
2019-05-22T14:01:16.240Z,5.30
2019-05-22T14:03:20.106Z,8.30
2019-05-22T14:05:24.456Z,9.93
2019-05-22T14:07:28.555Z,7.70
2019-05-22T14:09:32.666Z,7.23
2019-05-22T14:11:36.743Z,4.87
2019-05-22T14:13:41.073Z,6.43
2019-05-22T14:15:54.648Z,8.13
2019-05-22T14:17:50.014Z,11.60
2019-05-22T14:19:53.848Z,12.40
2019-05-22T14:21:57.706Z,10.50
2019-05-22T14:24:02.225Z,7.43
2019-05-22T14:26:07.150Z,10.07
2019-05-22T14:28:11.258Z,10.63
2019-05-22T14:30:15.390Z,13.53
2019-05-22T14:32:19.077Z,8.57
2019-05-22T14:34:22.916Z,9.33
2019-05-22T14:36:26.960Z,12.60
2019-05-22T14:38:31.823Z,11.10
2019-05-22T14:40:35.795Z,9.50
2019-05-22T14:42:39.844Z,11.10
2019-05-22T14:44:43.848Z,12.97
2019-05-22T14:46:47.750Z,9.13
2019-05-22T14:48:51.440Z,10.47
2019-05-22T14:50:55.552Z,9.60
2019-05-22T14:52:59.568Z,6.20
2019-05-22T14:55:03.707Z,6.93
2019-05-22T14:57:07.549Z,10.93
2019-05-22T14:59:11.471Z,12.53
2019-05-22T15:01:15.400Z,10.43
2019-05-22T15:03:19.179Z,10.87
2019-05-22T15:05:22.956Z,12.17
2019-05-22T15:07:27.025Z,9.00
2019-05-22T15:09:31.062Z,9.00
2019-05-22T15:11:35.014Z,9.60
2019-05-22T15:13:38.841Z,7.50
2019-05-22T15:15:43.607Z,10.63
2019-05-22T15:17:47.680Z,7.43
2019-05-22T15:19:52.723Z,11.70
2019-05-22T15:21:56.272Z,7.27
2019-05-22T15:24:00.510Z,11.30
2019-05-22T15:26:04.611Z,7.30
2019-05-22T15:28:08.535Z,8.40
2019-05-22T15:30:12.946Z,14.03
2019-05-22T15:32:17.573Z,9.33
2019-05-22T15:34:21.191Z,8.80
2019-05-22T15:36:24.851Z,8.70
2019-05-22T15:38:29.259Z,9.00
2019-05-22T15:40:33.063Z,7.90
2019-05-22T15:42:37.254Z,7.90
2019-05-22T15:44:41.608Z,6.70
2019-05-22T15:46:45.507Z,10.03
2019-05-22T15:48:49.515Z,8.33
2019-05-22T15:50:53.539Z,7.17
2019-05-22T15:52:58.488Z,7.33
2019-05-22T15:55:02.699Z,9.13
2019-05-22T15:57:09.536Z,9.37
2019-05-22T15:59:11.927Z,6.90
2019-05-22T16:01:15.831Z,10.83
2019-05-22T16:03:19.644Z,8.10
2019-05-22T16:05:23.289Z,7.23
2019-05-22T16:07:27.019Z,8.37
2019-05-22T16:09:31.006Z,6.37
2019-05-22T16:11:34.814Z,7.90
2019-05-22T16:13:38.981Z,8.20
2019-05-22T16:15:43.172Z,6.83
2019-05-22T16:17:47.156Z,6.20
2019-05-22T16:19:51.124Z,6.17
2019-05-22T16:21:55.176Z,6.33
2019-05-22T16:23:58.906Z,7.00
2019-05-22T16:26:02.955Z,7.93
2019-05-22T16:28:07.191Z,6.93
2019-05-22T16:30:11.212Z,9.80
2019-05-22T16:32:15.010Z,8.90
2019-05-22T16:34:19.255Z,7.20
2019-05-22T16:36:22.835Z,7.47
2019-05-22T16:38:26.553Z,7.37
2019-05-22T16:40:30.268Z,8.00
2019-05-22T16:42:34.117Z,5.87
2019-05-22T16:44:38.014Z,7.37
2019-05-22T16:46:42.345Z,6.57
2019-05-22T16:48:46.183Z,8.63
2019-05-22T16:50:50.053Z,5.97
2019-05-22T16:52:54.672Z,6.17
2019-05-22T16:54:58.565Z,8.17
2019-05-22T16:57:03.296Z,6.20
2019-05-22T16:59:07.514Z,7.97
2019-05-22T17:01:11.235Z,8.37
2019-05-22T17:03:15.014Z,5.97
2019-05-22T17:05:19.333Z,8.60
2019-05-22T17:07:23.054Z,6.13
2019-05-22T17:09:27.031Z,7.50
2019-05-22T17:11:31.030Z,7.20
2019-05-22T17:13:34.871Z,6.47
2019-05-22T17:15:38.502Z,5.57
2019-05-22T17:17:42.848Z,7.03
2019-05-22T17:19:46.797Z,7.57
2019-05-22T17:21:50.666Z,6.10
2019-05-22T17:23:54.631Z,5.47
2019-05-22T17:25:58.617Z,7.57
2019-05-22T17:28:02.590Z,5.57
2019-05-22T17:30:06.617Z,8.13
2019-05-22T17:32:10.436Z,6.70
2019-05-22T17:34:15.143Z,7.13
2019-05-22T17:36:19.234Z,4.80
2019-05-22T17:38:23.330Z,7.10
2019-05-22T17:40:26.927Z,5.67
2019-05-22T17:42:31.149Z,6.10
2019-05-22T17:44:34.782Z,5.77
2019-05-22T17:46:38.554Z,5.80
2019-05-22T17:48:42.734Z,5.00
2019-05-22T17:50:46.476Z,8.70
2019-05-22T17:52:50.083Z,5.83
2019-05-22T17:54:54.378Z,5.43
2019-05-22T17:56:58.191Z,5.40
2019-05-22T17:59:02.086Z,6.00
2019-05-22T18:01:06.447Z,5.03
2019-05-22T18:03:10.542Z,7.10
2019-05-22T18:05:14.567Z,7.20
2019-05-22T18:07:18.637Z,6.37
2019-05-22T18:09:22.476Z,4.63
2019-05-22T18:11:26.147Z,6.63
2019-05-22T18:13:30.453Z,6.27
2019-05-22T18:15:34.292Z,5.03
2019-05-22T18:17:38.087Z,5.63
2019-05-22T18:19:42.867Z,5.03
2019-05-22T18:21:47.912Z,6.33
2019-05-22T18:23:52.023Z,5.20
2019-05-22T18:25:57.262Z,6.17
2019-05-22T18:28:01.289Z,4.53
2019-05-22T18:30:05.986Z,8.03
2019-05-22T18:32:10.082Z,6.50
2019-05-22T18:34:14.417Z,4.80
2019-05-22T18:36:18.026Z,6.27
2019-05-22T18:38:21.993Z,5.30
2019-05-22T18:40:25.827Z,4.70
2019-05-22T18:42:30.137Z,5.63
2019-05-22T18:44:35.320Z,4.63
2019-05-22T18:46:39.382Z,5.30
2019-05-22T18:48:43.500Z,5.40
2019-05-22T18:50:49.236Z,4.70
2019-05-22T18:52:53.144Z,5.97
2019-05-22T18:54:57.001Z,6.00
2019-05-22T18:57:02.372Z,6.30
2019-05-22T18:59:06.724Z,5.00
2019-05-22T19:01:10.458Z,4.87
2019-05-22T19:03:14.523Z,5.27
2019-05-22T19:05:18.266Z,5.70
2019-05-22T19:07:22.695Z,6.10
2019-05-22T19:09:26.990Z,7.30
2019-05-22T19:11:30.972Z,5.00
2019-05-22T19:13:35.175Z,6.43
2019-05-22T19:15:39.492Z,6.00
2019-05-22T19:17:43.842Z,5.77
2019-05-22T19:19:47.845Z,7.33
2019-05-22T19:21:51.937Z,6.00
2019-05-22T19:23:55.538Z,4.90
2019-05-22T19:25:59.407Z,5.80
2019-05-22T19:28:03.561Z,5.93
2019-05-22T19:30:07.267Z,5.40
2019-05-22T19:32:11.264Z,5.03
2019-05-22T19:34:15.247Z,8.27
2019-05-22T19:36:18.798Z,5.63
2019-05-22T19:38:23.466Z,6.37
2019-05-22T19:40:27.640Z,5.40
2019-05-22T19:42:31.238Z,5.40
2019-05-22T19:44:35.070Z,4.50
2019-05-22T19:46:39.291Z,5.37
2019-05-22T19:48:43.399Z,5.53
2019-05-22T19:50:46.999Z,4.93
2019-05-22T19:52:51.457Z,5.30
2019-05-22T19:54:55.113Z,5.07
2019-05-22T19:56:58.868Z,6.10
2019-05-22T19:59:03.033Z,4.80
2019-05-22T20:01:06.944Z,7.73
2019-05-22T20:03:10.774Z,5.60
2019-05-22T20:05:15.511Z,5.10
2019-05-22T20:07:19.276Z,5.37
2019-05-22T20:09:23.523Z,5.73
2019-05-22T20:11:28.422Z,7.20
2019-05-22T20:13:32.540Z,4.63
2019-05-22T20:15:36.496Z,5.77
2019-05-22T20:17:40.939Z,4.87
2019-05-22T20:19:44.965Z,5.00
2019-05-22T20:21:49.985Z,4.90
2019-05-22T20:23:55.834Z,4.23
2019-05-22T20:26:00.133Z,4.90
2019-05-22T20:28:04.579Z,5.60
2019-05-22T20:30:09.194Z,5.70
2019-05-22T20:32:13.732Z,5.77
2019-05-22T20:34:17.739Z,5.27
2019-05-22T20:36:21.735Z,6.80
2019-05-22T20:38:25.625Z,5.43
2019-05-22T20:40:29.538Z,5.03
2019-05-22T20:42:33.536Z,4.97
2019-05-22T20:44:37.464Z,5.53
2019-05-22T20:46:41.463Z,5.10
2019-05-22T20:48:45.667Z,4.33
2019-05-22T20:50:49.375Z,6.00
2019-05-22T20:52:53.065Z,4.93
2019-05-22T20:54:59.070Z,5.47
2019-05-22T20:57:03.162Z,5.63
2019-05-22T20:59:07.175Z,5.50
2019-05-22T21:01:11.300Z,4.57
2019-05-22T21:03:15.576Z,5.47
2019-05-22T21:05:19.376Z,6.83
2019-05-22T21:07:23.678Z,4.50
2019-05-22T21:09:27.577Z,6.57
2019-05-22T21:11:32.047Z,4.57
2019-05-22T21:13:35.930Z,6.13
2019-05-22T21:15:40.121Z,5.27
2019-05-22T21:17:44.161Z,4.63
2019-05-22T21:19:48.141Z,5.50
2019-05-22T21:21:51.948Z,6.80
2019-05-22T21:24:09.335Z,4.97
2019-05-22T21:26:01.282Z,5.70
2019-05-22T21:28:05.424Z,4.60
2019-05-22T21:30:09.436Z,4.60
2019-05-22T21:32:13.590Z,5.73
2019-05-22T21:34:17.517Z,6.23
2019-05-22T21:36:22.158Z,4.47
2019-05-22T21:38:26.191Z,4.70
2019-05-22T21:40:30.291Z,5.40
2019-05-22T21:42:34.172Z,5.30
2019-05-22T21:44:38.086Z,7.07
2019-05-22T21:46:41.972Z,4.63
2019-05-22T21:48:45.999Z,5.13
2019-05-22T21:50:50.194Z,4.83
2019-05-22T21:52:53.914Z,5.00
2019-05-22T21:54:57.811Z,5.13
2019-05-22T21:57:02.005Z,6.30
2019-05-22T21:59:05.726Z,8.10
2019-05-22T22:01:10.036Z,9.80
2019-05-22T22:03:14.360Z,7.30
2019-05-22T22:05:18.656Z,7.93
2019-05-22T22:07:22.373Z,10.37
2019-05-22T22:09:27.326Z,12.13
2019-05-22T22:11:31.092Z,14.07
2019-05-22T22:13:35.247Z,12.10
2019-05-22T22:15:39.096Z,10.67
2019-05-22T22:17:43.128Z,14.77
2019-05-22T22:19:46.931Z,12.93
2019-05-22T22:21:51.024Z,14.27
2019-05-22T22:23:55.225Z,17.77
2019-05-22T22:25:59.165Z,12.43
2019-05-22T22:28:03.591Z,12.63
2019-05-22T22:30:07.169Z,19.63
2019-05-22T22:32:11.490Z,12.63
2019-05-22T22:34:15.507Z,11.97
2019-05-22T22:36:19.188Z,21.70
2019-05-22T22:38:22.989Z,19.70
2019-05-22T22:40:27.109Z,12.63
2019-05-22T22:42:30.801Z,21.70
2019-05-22T22:44:34.725Z,16.10
2019-05-22T22:46:38.700Z,15.10
2019-05-22T22:48:42.515Z,14.23
2019-05-22T22:50:46.463Z,10.80
2019-05-22T22:52:50.432Z,21.43
2019-05-22T22:54:54.348Z,10.60
2019-05-22T22:56:58.238Z,13.93
2019-05-22T22:59:02.358Z,14.40
2019-05-22T23:01:06.297Z,10.93
2019-05-22T23:03:10.250Z,14.17
2019-05-22T23:05:14.376Z,12.07
2019-05-22T23:07:18.287Z,12.20
2019-05-22T23:09:21.980Z,13.90
2019-05-22T23:11:26.183Z,12.07
2019-05-22T23:13:29.994Z,10.30
2019-05-22T23:15:33.800Z,13.40
2019-05-22T23:17:37.713Z,9.63
2019-05-22T23:19:41.514Z,20.20
2019-05-22T23:21:46.276Z,20.30
2019-05-22T23:23:51.727Z,26.63
2019-05-22T23:25:56.885Z,35.93
2019-05-22T23:28:01.045Z,89.23
2019-05-22T23:30:05.434Z,106.33
2019-05-22T23:32:09.258Z,95.37
2019-05-22T23:34:12.955Z,134.00
2019-05-22T23:36:17.406Z,124.20
2019-05-22T23:38:21.313Z,136.10
2019-05-22T23:40:26.193Z,122.07
2019-05-22T23:42:31.872Z,105.03
2019-05-22T23:44:36.490Z,90.83
2019-05-22T23:46:40.250Z,116.77
2019-05-22T23:48:44.165Z,86.97
2019-05-22T23:50:47.970Z,99.33
2019-05-22T23:52:52.083Z,92.27
2019-05-22T23:54:55.985Z,90.83
2019-05-22T23:57:00.011Z,76.67
2019-05-22T23:59:04.249Z,77.03
